createdAt,value
2022-12-22T00:02:34.602Z,94.68
2022-12-22T00:08:05.777Z,94.33
2022-12-22T00:13:37.526Z,95.1
2022-12-22T00:19:09.438Z,94.81
2022-12-22T00:24:41.198Z,94.81
2022-12-22T00:30:13.646Z,95.25
2022-12-22T00:35:50.210Z,96.0
2022-12-22T00:41:20.694Z,95.71
2022-12-22T00:46:52.353Z,95.49
2022-12-22T00:52:24.051Z,96.66
2022-12-22T00:57:56.495Z,99.86
2022-12-22T01:03:27.732Z,100.0
2022-12-22T01:08:59.480Z,100.0
2022-12-22T01:14:31.453Z,100.0
2022-12-22T01:20:03.092Z,100.0
2022-12-22T01:25:34.324Z,100.0
2022-12-22T01:31:06.339Z,100.0
2022-12-22T01:36:44.231Z,100.0
2022-12-22T01:42:15.921Z,100.0
2022-12-22T01:47:47.657Z,100.0
2022-12-22T01:53:20.683Z,100.0
2022-12-22T01:58:51.616Z,100.0
2022-12-22T02:04:22.722Z,100.0
2022-12-22T02:09:54.561Z,100.0
2022-12-22T02:15:26.482Z,100.0
2022-12-22T02:20:58.042Z,100.0
2022-12-22T02:26:29.794Z,100.0
2022-12-22T02:32:01.806Z,100.0
2022-12-22T02:37:38.127Z,100.0
2022-12-22T02:43:09.359Z,100.0
2022-12-22T02:48:41.188Z,100.0
2022-12-22T02:54:12.748Z,100.0
2022-12-22T02:59:44.558Z,100.0
2022-12-22T03:05:16.339Z,100.0
2022-12-22T03:10:47.954Z,100.0
2022-12-22T03:16:19.945Z,100.0
2022-12-22T03:21:51.519Z,100.0
2022-12-22T03:27:23.146Z,100.0
2022-12-22T03:32:54.865Z,100.0
2022-12-22T03:38:30.945Z,100.0
2022-12-22T03:44:02.730Z,100.0
2022-12-22T03:49:34.457Z,100.0
2022-12-22T03:55:06.693Z,100.0
2022-12-22T04:00:37.845Z,100.0
2022-12-22T04:06:09.821Z,100.0
2022-12-22T04:11:41.269Z,100.0
2022-12-22T04:17:13.009Z,100.0
2022-12-22T04:22:44.700Z,100.0
2022-12-22T04:28:16.651Z,100.0
2022-12-22T04:33:48.458Z,100.0
2022-12-22T04:39:24.461Z,100.0
2022-12-22T04:44:56.099Z,100.0
2022-12-22T04:50:27.910Z,100.0
2022-12-22T04:55:59.545Z,100.0
2022-12-22T05:01:31.471Z,100.0
2022-12-22T05:07:03.187Z,100.0
2022-12-22T05:12:34.717Z,100.0
2022-12-22T05:18:06.434Z,100.0
2022-12-22T05:23:38.874Z,100.0
2022-12-22T05:29:09.925Z,100.0
2022-12-22T05:34:41.664Z,100.0
2022-12-22T05:40:19.835Z,100.0
2022-12-22T05:45:51.375Z,100.0
2022-12-22T05:51:23.034Z,100.0
2022-12-22T05:56:55.348Z,100.0
2022-12-22T06:02:26.970Z,100.0
2022-12-22T06:07:58.292Z,100.0
2022-12-22T06:13:29.927Z,100.0
2022-12-22T06:19:02.388Z,100.0
2022-12-22T06:24:33.360Z,100.0
2022-12-22T06:30:05.172Z,100.0
2022-12-22T06:35:37.712Z,100.0
2022-12-22T06:41:12.927Z,100.0
2022-12-22T06:46:44.884Z,100.0
2022-12-22T06:52:16.833Z,100.0
2022-12-22T06:57:48.349Z,99.82
2022-12-22T07:03:20.596Z,99.01
2022-12-22T07:08:51.721Z,98.72
2022-12-22T07:14:23.541Z,98.29
2022-12-22T07:19:55.144Z,99.64
2022-12-22T07:25:27.603Z,99.58
2022-12-22T07:30:58.861Z,99.13
2022-12-22T07:36:30.447Z,98.63
2022-12-22T07:42:06.753Z,98.45
2022-12-22T07:47:39.136Z,97.77
2022-12-22T07:53:09.910Z,96.73
2022-12-22T07:58:42.194Z,97.19
2022-12-22T08:04:13.609Z,96.98
2022-12-22T08:09:44.986Z,97.34
2022-12-22T08:15:16.777Z,97.11
2022-12-22T08:20:48.521Z,98.73
2022-12-22T08:26:20.268Z,98.61
2022-12-22T08:31:52.304Z,98.56
2022-12-22T08:37:23.748Z,98.33
2022-12-22T08:42:59.833Z,97.83
2022-12-22T08:48:31.372Z,97.28
2022-12-22T08:54:06.315Z,96.75
2022-12-22T08:59:34.830Z,96.43
2022-12-22T09:05:06.575Z,96.03
2022-12-22T09:10:38.318Z,94.71
2022-12-22T09:16:10.171Z,94.62
2022-12-22T09:21:41.781Z,98.89
2022-12-22T09:27:13.782Z,100.0
2022-12-22T09:32:45.189Z,100.0
2022-12-22T09:38:17.715Z,100.0
2022-12-22T09:43:55.196Z,100.0
2022-12-22T09:49:27.244Z,100.0
2022-12-22T09:54:58.545Z,100.0
2022-12-22T10:00:30.856Z,100.0
2022-12-22T10:06:02.273Z,100.0
2022-12-22T10:11:33.685Z,100.0
2022-12-22T10:17:05.601Z,100.0
2022-12-22T10:22:37.280Z,100.0
2022-12-22T10:28:09.160Z,100.0
2022-12-22T10:33:47.657Z,100.0
2022-12-22T10:39:12.862Z,100.0
2022-12-22T10:44:48.583Z,100.0
2022-12-22T10:50:20.109Z,100.0
2022-12-22T10:55:51.804Z,100.0
2022-12-22T11:01:23.697Z,100.0
2022-12-22T11:06:55.286Z,100.0
2022-12-22T11:12:26.952Z,100.0
2022-12-22T11:17:58.967Z,100.0
2022-12-22T11:23:30.443Z,100.0
2022-12-22T11:29:02.403Z,100.0
2022-12-22T11:34:33.926Z,100.0
2022-12-22T11:40:05.632Z,100.0
2022-12-22T11:45:44.285Z,100.0
2022-12-22T11:51:15.836Z,100.0
2022-12-22T11:56:47.948Z,100.0
2022-12-22T12:02:19.255Z,99.35
2022-12-22T12:07:50.938Z,99.26
2022-12-22T12:13:36.688Z,100.0
2022-12-22T12:18:54.287Z,96.22
2022-12-22T12:24:25.864Z,97.95
2022-12-22T12:30:38.329Z,96.33
2022-12-22T12:35:29.352Z,96.03
2022-12-22T12:41:01.136Z,95.81
2022-12-22T12:46:37.583Z,96.53
2022-12-22T12:52:08.934Z,97.1
2022-12-22T12:57:40.673Z,96.88
2022-12-22T13:04:01.581Z,97.11
2022-12-22T13:08:44.089Z,96.3
2022-12-22T13:14:15.878Z,96.35
2022-12-22T13:19:47.589Z,95.35
2022-12-22T13:25:19.204Z,96.26
2022-12-22T13:30:50.963Z,98.34
2022-12-22T13:36:23.352Z,97.91
2022-12-22T13:41:54.538Z,95.87
2022-12-22T13:47:30.438Z,96.1
2022-12-22T13:53:02.279Z,94.87
2022-12-22T13:58:33.901Z,95.51
2022-12-22T14:04:05.841Z,95.26
2022-12-22T14:09:37.375Z,95.3
2022-12-22T14:15:09.103Z,95.29
2022-12-22T14:20:40.850Z,95.25
2022-12-22T14:26:12.510Z,95.41
2022-12-22T14:31:44.559Z,95.49
2022-12-22T14:37:16.021Z,93.59
2022-12-22T14:42:47.764Z,94.7
2022-12-22T14:48:23.841Z,94.57
2022-12-22T14:53:55.597Z,94.72
2022-12-22T14:59:27.346Z,94.18
2022-12-22T15:04:59.076Z,94.74
2022-12-22T15:10:30.701Z,93.9
2022-12-22T15:16:02.673Z,93.97
2022-12-22T15:21:34.258Z,93.75
2022-12-22T15:27:06.065Z,93.27
2022-12-22T15:32:38.576Z,93.1
2022-12-22T15:38:09.887Z,93.19
2022-12-22T15:43:59.561Z,92.9
2022-12-22T15:49:17.172Z,93.45
2022-12-22T15:54:48.878Z,93.76
2022-12-22T16:00:21.770Z,94.55
2022-12-22T16:05:52.317Z,95.5
2022-12-22T16:11:24.136Z,95.93
2022-12-22T16:16:55.907Z,95.13
2022-12-22T16:22:27.508Z,95.53
2022-12-22T16:28:00.051Z,95.03
2022-12-22T16:33:31.379Z,95.23
2022-12-22T16:39:02.703Z,94.99
2022-12-22T16:45:05.305Z,94.71
2022-12-22T16:50:10.668Z,95.45
2022-12-22T16:55:42.711Z,95.17
2022-12-22T17:01:14.793Z,95.1
2022-12-22T17:06:45.872Z,94.85
2022-12-22T17:12:17.498Z,94.75
2022-12-22T17:17:49.302Z,95.66
2022-12-22T17:23:20.907Z,95.92
2022-12-22T17:28:52.745Z,96.2
2022-12-22T17:34:24.493Z,97.18
2022-12-22T17:39:56.480Z,97.05
2022-12-22T17:45:28.080Z,97.95
2022-12-22T17:51:04.044Z,97.89
2022-12-22T17:56:36.135Z,98.01
2022-12-22T18:02:07.636Z,98.07
2022-12-22T18:07:44.140Z,97.72
2022-12-22T18:13:10.799Z,97.62
2022-12-22T18:18:42.770Z,97.53
2022-12-22T18:24:14.274Z,98.6
2022-12-22T18:29:46.017Z,98.53
2022-12-22T18:35:17.655Z,98.44
2022-12-22T18:40:49.328Z,98.31
2022-12-22T18:46:22.001Z,98.75
2022-12-22T18:51:59.879Z,98.52
2022-12-22T18:57:31.023Z,98.64
2022-12-22T19:03:02.919Z,98.59
2022-12-22T19:08:39.054Z,98.48
2022-12-22T19:14:06.410Z,98.28
2022-12-22T19:19:37.968Z,98.33
2022-12-22T19:25:09.640Z,99.44
2022-12-22T19:30:41.574Z,99.8
2022-12-22T19:36:13.058Z,100.0
2022-12-22T19:41:45.641Z,100.0
2022-12-22T19:47:16.593Z,100.0
2022-12-22T19:52:52.718Z,100.0
2022-12-22T19:58:24.393Z,100.0
2022-12-22T20:03:56.084Z,100.0
2022-12-22T20:09:27.823Z,100.0
2022-12-22T20:14:59.592Z,100.0
2022-12-22T20:20:31.433Z,100.0
2022-12-22T20:26:03.083Z,100.0
2022-12-22T20:31:34.979Z,100.0
2022-12-22T20:37:06.337Z,100.0
2022-12-22T20:42:38.111Z,100.0
2022-12-22T20:48:09.835Z,100.0
2022-12-22T20:53:46.210Z,100.0
2022-12-22T20:59:17.727Z,100.0
2022-12-22T21:04:49.344Z,100.0
2022-12-22T21:10:21.311Z,100.0
2022-12-22T21:15:53.076Z,100.0
2022-12-22T21:21:24.633Z,100.0
2022-12-22T21:26:57.370Z,100.0
2022-12-22T21:32:27.895Z,100.0
2022-12-22T21:37:59.601Z,100.0
2022-12-22T21:43:31.553Z,100.0
2022-12-22T21:49:03.205Z,100.0
2022-12-22T21:54:39.405Z,100.0
2022-12-22T22:00:11.308Z,100.0
2022-12-22T22:05:42.930Z,100.0
2022-12-22T22:11:14.659Z,100.0
2022-12-22T22:16:46.437Z,100.0
2022-12-22T22:22:18.075Z,100.0
2022-12-22T22:27:49.840Z,100.0
2022-12-22T22:33:21.629Z,100.0
2022-12-22T22:38:53.149Z,100.0
2022-12-22T22:44:25.073Z,100.0
2022-12-22T22:49:56.795Z,100.0
2022-12-22T22:55:33.347Z,100.0
2022-12-22T23:01:04.407Z,100.0
2022-12-22T23:06:36.117Z,100.0
2022-12-22T23:12:07.802Z,100.0
2022-12-22T23:17:40.000Z,100.0
2022-12-22T23:23:11.293Z,100.0
2022-12-22T23:28:42.990Z,100.0
2022-12-22T23:34:14.806Z,100.0
2022-12-22T23:39:46.453Z,100.0
2022-12-22T23:45:18.186Z,100.0
2022-12-22T23:50:49.966Z,100.0
2022-12-22T23:56:26.161Z,100.0
